createdAt,value
2022-07-29T00:02:27.732Z,58.31
2022-07-29T00:04:54.950Z,58.44
2022-07-29T00:07:21.915Z,58.43
2022-07-29T00:09:51.220Z,58.59
2022-07-29T00:12:25.479Z,58.32
2022-07-29T00:14:54.882Z,58.13
2022-07-29T00:17:22.397Z,58.10
2022-07-29T00:19:49.271Z,58.08
2022-07-29T00:22:16.276Z,57.89
2022-07-29T00:24:43.212Z,57.99
2022-07-29T00:27:10.006Z,57.89
2022-07-29T00:29:36.904Z,57.98
2022-07-29T00:32:03.966Z,57.88
2022-07-29T00:34:50.318Z,58.00
2022-07-29T00:37:17.206Z,58.04
2022-07-29T00:39:44.230Z,58.08
2022-07-29T00:42:11.510Z,57.81
2022-07-29T00:44:41.952Z,58.05
2022-07-29T00:47:10.700Z,57.93
2022-07-29T00:49:39.763Z,57.91
2022-07-29T00:52:07.783Z,58.03
2022-07-29T00:54:37.445Z,57.99
2022-07-29T00:57:13.354Z,58.07
2022-07-29T00:59:40.338Z,58.22
2022-07-29T01:02:07.276Z,58.02
2022-07-29T01:04:34.450Z,58.31
2022-07-29T01:07:02.520Z,58.08
2022-07-29T01:09:45.403Z,58.28
2022-07-29T01:12:20.720Z,58.54
2022-07-29T01:14:50.743Z,58.46
2022-07-29T01:17:21.344Z,58.54
2022-07-29T01:20:09.105Z,58.47
2022-07-29T01:22:43.130Z,58.58
2022-07-29T01:25:16.109Z,58.55
2022-07-29T01:28:11.834Z,58.88
2022-07-29T01:30:42.666Z,58.76
2022-07-29T01:33:34.277Z,58.80
2022-07-29T01:36:10.211Z,58.85
2022-07-29T01:38:40.153Z,58.68
2022-07-29T01:41:11.470Z,58.77
2022-07-29T01:43:52.448Z,58.78
2022-07-29T01:46:25.993Z,58.78
2022-07-29T01:49:02.939Z,59.07
2022-07-29T01:51:41.243Z,58.87
2022-07-29T01:54:11.548Z,58.88
2022-07-29T01:56:39.561Z,58.85
2022-07-29T01:59:08.909Z,58.90
2022-07-29T02:01:39.879Z,58.67
2022-07-29T02:04:10.645Z,58.99
2022-07-29T02:06:41.170Z,58.89
2022-07-29T02:09:11.073Z,58.95
2022-07-29T02:11:39.436Z,58.91
2022-07-29T02:14:08.716Z,59.17
2022-07-29T02:16:38.809Z,59.16
2022-07-29T02:19:07.730Z,59.00
2022-07-29T02:21:36.493Z,59.29
2022-07-29T02:24:05.491Z,59.19
2022-07-29T02:26:34.341Z,59.36
2022-07-29T02:29:02.604Z,59.40
2022-07-29T02:31:34.386Z,59.30
2022-07-29T02:34:03.929Z,59.39
2022-07-29T02:36:32.870Z,59.37
2022-07-29T02:39:01.212Z,59.43
2022-07-29T02:41:36.703Z,59.45
2022-07-29T02:44:10.683Z,59.59
2022-07-29T02:46:42.279Z,59.59
2022-07-29T02:49:30.164Z,59.66
2022-07-29T02:52:03.838Z,59.94
2022-07-29T02:54:45.057Z,59.96
2022-07-29T02:57:20.990Z,59.85
2022-07-29T02:59:50.293Z,59.94
2022-07-29T03:02:18.064Z,59.88
2022-07-29T03:04:46.608Z,60.23
2022-07-29T03:07:16.163Z,60.25
2022-07-29T03:09:43.533Z,60.19
2022-07-29T03:12:11.566Z,60.30
2022-07-29T03:14:38.986Z,60.51
2022-07-29T03:17:06.298Z,60.56
2022-07-29T03:19:34.737Z,60.86
2022-07-29T03:22:01.907Z,61.02
2022-07-29T03:24:34.631Z,60.92
2022-07-29T03:27:02.712Z,60.94
2022-07-29T03:29:33.803Z,61.05
2022-07-29T03:32:04.308Z,61.20
2022-07-29T03:34:34.308Z,61.23
2022-07-29T03:37:01.195Z,61.27
2022-07-29T03:39:31.829Z,61.31
2022-07-29T03:42:00.828Z,61.26
2022-07-29T03:44:29.685Z,61.40
2022-07-29T03:47:01.555Z,61.42
2022-07-29T03:49:28.902Z,61.22
2022-07-29T03:51:56.001Z,61.37
2022-07-29T03:54:23.237Z,61.57
2022-07-29T03:56:53.052Z,61.44
2022-07-29T03:59:22.003Z,61.46
2022-07-29T04:01:50.491Z,61.72
2022-07-29T04:04:18.012Z,61.53
2022-07-29T04:06:48.358Z,61.70
2022-07-29T04:09:15.329Z,61.70
2022-07-29T04:12:02.891Z,61.51
2022-07-29T04:14:31.426Z,61.54
2022-07-29T04:16:58.287Z,61.62
2022-07-29T04:19:24.982Z,61.67
2022-07-29T04:21:51.783Z,62.00
2022-07-29T04:24:19.108Z,61.80
2022-07-29T04:26:46.949Z,62.02
2022-07-29T04:29:14.919Z,61.93
2022-07-29T04:31:42.508Z,61.94
2022-07-29T04:34:10.108Z,61.88
2022-07-29T04:36:37.377Z,61.77
2022-07-29T04:39:04.394Z,61.74
2022-07-29T04:41:33.254Z,61.83
2022-07-29T04:44:05.327Z,61.81
2022-07-29T04:46:32.553Z,61.61
2022-07-29T04:48:59.383Z,61.49
2022-07-29T04:51:26.310Z,61.50
2022-07-29T04:53:53.024Z,61.58
2022-07-29T04:56:19.823Z,61.53
2022-07-29T04:58:46.604Z,61.48
2022-07-29T05:01:13.865Z,61.53
2022-07-29T05:03:40.916Z,61.46
2022-07-29T05:06:07.699Z,61.30
2022-07-29T05:08:34.491Z,60.97
2022-07-29T05:11:12.174Z,61.08
2022-07-29T05:13:45.218Z,60.32
2022-07-29T05:16:14.681Z,60.06
2022-07-29T05:18:42.511Z,59.85
2022-07-29T05:21:09.387Z,59.70
2022-07-29T05:23:36.291Z,59.91
2022-07-29T05:26:03.106Z,59.26
2022-07-29T05:28:34.002Z,58.85
2022-07-29T05:31:01.499Z,59.07
2022-07-29T05:33:35.633Z,58.86
2022-07-29T05:36:08.072Z,58.40
2022-07-29T05:38:35.953Z,58.13
2022-07-29T05:41:03.242Z,57.82
2022-07-29T05:43:30.642Z,57.33
2022-07-29T05:45:57.826Z,57.54
2022-07-29T05:48:25.209Z,57.58
2022-07-29T05:50:52.240Z,57.23
2022-07-29T05:53:20.526Z,57.14
2022-07-29T05:55:48.974Z,56.45
2022-07-29T05:58:16.341Z,56.41
2022-07-29T06:00:43.105Z,56.50
2022-07-29T06:03:09.917Z,55.77
2022-07-29T06:05:36.679Z,56.04
2022-07-29T06:08:06.257Z,55.31
2022-07-29T06:10:33.678Z,55.29
2022-07-29T06:13:00.599Z,55.35
2022-07-29T06:15:28.627Z,55.24
2022-07-29T06:17:59.999Z,55.16
2022-07-29T06:20:32.136Z,54.36
2022-07-29T06:23:00.003Z,53.88
2022-07-29T06:25:29.665Z,54.05
2022-07-29T06:27:57.064Z,53.98
2022-07-29T06:30:23.995Z,53.82
2022-07-29T06:32:50.841Z,54.21
2022-07-29T06:35:41.306Z,53.95
2022-07-29T06:38:06.379Z,54.06
2022-07-29T06:41:02.557Z,54.08
2022-07-29T06:43:50.604Z,54.25
2022-07-29T06:46:21.364Z,54.16
2022-07-29T06:48:48.850Z,53.93
2022-07-29T06:51:16.878Z,54.04
2022-07-29T06:54:00.141Z,53.89
2022-07-29T06:56:38.554Z,53.68
2022-07-29T06:59:12.566Z,52.69
2022-07-29T07:01:42.635Z,52.75
2022-07-29T07:04:10.262Z,52.71
2022-07-29T07:06:38.170Z,52.67
2022-07-29T07:09:05.480Z,52.48
2022-07-29T07:11:32.301Z,52.69
2022-07-29T07:14:03.363Z,52.75
2022-07-29T07:16:36.901Z,52.96
2022-07-29T07:19:04.002Z,52.50
2022-07-29T07:21:31.550Z,52.32
2022-07-29T07:23:59.653Z,52.25
2022-07-29T07:26:28.248Z,51.97
2022-07-29T07:28:55.122Z,51.39
2022-07-29T07:31:22.174Z,51.51
2022-07-29T07:33:49.013Z,51.41
2022-07-29T07:36:15.765Z,50.72
2022-07-29T07:38:42.500Z,50.39
2022-07-29T07:41:09.281Z,50.28
2022-07-29T07:43:36.042Z,50.17
2022-07-29T07:46:03.055Z,49.49
2022-07-29T07:48:29.863Z,49.57
2022-07-29T07:50:56.731Z,48.77
2022-07-29T07:53:23.669Z,48.83
2022-07-29T07:58:38.941Z,48.23
2022-07-29T08:01:07.872Z,48.19
2022-07-29T08:03:35.584Z,47.53
2022-07-29T08:06:04.216Z,47.80
2022-07-29T08:08:31.277Z,47.74
2022-07-29T08:10:59.276Z,47.15
2022-07-29T08:13:30.843Z,47.24
2022-07-29T08:15:58.583Z,46.70
2022-07-29T08:18:29.985Z,47.10
2022-07-29T08:20:57.534Z,46.80
2022-07-29T08:23:25.302Z,46.28
2022-07-29T08:25:52.509Z,46.97
2022-07-29T08:28:22.161Z,46.13
2022-07-29T08:30:53.258Z,46.40
2022-07-29T08:33:20.119Z,46.65
2022-07-29T08:35:47.049Z,46.19
2022-07-29T08:38:14.004Z,45.83
2022-07-29T08:40:40.848Z,46.01
2022-07-29T08:43:09.001Z,46.34
2022-07-29T08:45:48.159Z,46.00
2022-07-29T08:48:18.891Z,45.80
2022-07-29T08:50:47.035Z,45.97
2022-07-29T08:53:16.459Z,45.66
2022-07-29T08:55:44.718Z,45.67
2022-07-29T08:58:13.261Z,45.95
2022-07-29T09:00:50.305Z,45.85
2022-07-29T09:03:19.929Z,45.48
2022-07-29T09:05:48.203Z,45.69
2022-07-29T09:08:16.748Z,45.71
2022-07-29T09:10:44.927Z,45.64
2022-07-29T09:13:12.024Z,46.38
2022-07-29T09:15:39.081Z,46.37
2022-07-29T09:18:06.085Z,46.12
2022-07-29T09:20:51.636Z,45.47
2022-07-29T09:23:23.071Z,45.57
2022-07-29T09:25:51.478Z,45.67
2022-07-29T09:28:20.106Z,46.02
2022-07-29T09:30:59.478Z,45.52
2022-07-29T09:33:35.152Z,45.25
2022-07-29T09:36:09.862Z,45.48
2022-07-29T09:38:40.034Z,45.31
2022-07-29T09:41:09.048Z,45.27
2022-07-29T09:43:36.356Z,45.41
2022-07-29T09:46:13.930Z,45.59
2022-07-29T09:48:40.917Z,45.42
2022-07-29T09:51:26.724Z,45.56
2022-07-29T09:53:55.296Z,45.55
2022-07-29T09:56:42.106Z,45.23
2022-07-29T09:59:09.685Z,45.36
2022-07-29T10:01:36.530Z,45.37
2022-07-29T10:04:03.732Z,45.73
2022-07-29T10:06:30.487Z,45.69
2022-07-29T10:09:17.756Z,45.18
2022-07-29T10:12:14.329Z,45.55
2022-07-29T10:14:42.926Z,45.83
2022-07-29T10:17:11.142Z,46.07
2022-07-29T10:19:39.564Z,45.56
2022-07-29T10:22:09.080Z,45.78
2022-07-29T10:24:37.846Z,46.24
2022-07-29T10:27:07.678Z,46.52
2022-07-29T10:29:35.040Z,45.86
2022-07-29T10:32:05.050Z,45.46
2022-07-29T10:34:59.698Z,45.31
2022-07-29T10:37:45.921Z,45.95
2022-07-29T10:40:34.731Z,46.06
2022-07-29T10:43:17.981Z,45.75
2022-07-29T10:45:48.745Z,45.86
2022-07-29T10:48:17.130Z,45.71
2022-07-29T10:50:56.093Z,45.81
2022-07-29T10:53:24.208Z,44.86
2022-07-29T10:55:52.845Z,44.62
2022-07-29T10:58:24.510Z,45.04
2022-07-29T11:00:54.854Z,45.43
2022-07-29T11:03:49.707Z,45.40
2022-07-29T11:06:26.654Z,45.38
2022-07-29T11:09:25.733Z,44.87
2022-07-29T11:12:03.138Z,44.44
2022-07-29T11:14:56.606Z,44.53
2022-07-29T11:17:23.548Z,44.70
2022-07-29T11:19:52.418Z,44.99
2022-07-29T11:22:37.717Z,44.89
2022-07-29T11:25:18.791Z,45.36
2022-07-29T11:27:46.360Z,45.65
2022-07-29T11:30:15.102Z,45.68
2022-07-29T11:32:44.944Z,45.86
2022-07-29T11:35:38.123Z,46.20
2022-07-29T11:38:22.799Z,46.39
2022-07-29T11:41:20.847Z,45.58
2022-07-29T11:43:56.224Z,45.72
2022-07-29T11:46:49.130Z,45.61
2022-07-29T11:49:22.215Z,45.58
2022-07-29T11:52:03.918Z,45.31
2022-07-29T11:57:36.582Z,44.51
2022-07-29T12:00:09.695Z,44.45
2022-07-29T12:02:48.187Z,44.51
2022-07-29T12:05:24.029Z,44.93
2022-07-29T12:08:12.485Z,45.15
2022-07-29T12:10:42.970Z,44.86
2022-07-29T12:13:11.282Z,44.65
2022-07-29T12:15:47.216Z,44.50
2022-07-29T12:18:18.214Z,44.48
2022-07-29T12:20:47.161Z,44.13
2022-07-29T12:23:16.186Z,44.33
2022-07-29T12:25:45.107Z,44.51
2022-07-29T12:28:27.660Z,44.43
2022-07-29T12:30:55.211Z,44.79
2022-07-29T12:33:24.536Z,44.88
2022-07-29T12:36:06.927Z,45.04
2022-07-29T12:38:36.279Z,45.21
2022-07-29T12:41:04.423Z,45.24
2022-07-29T12:43:32.020Z,45.43
2022-07-29T12:46:15.730Z,45.36
2022-07-29T12:48:44.469Z,45.63
2022-07-29T12:51:14.736Z,44.60
2022-07-29T12:53:41.551Z,44.64
2022-07-29T12:56:40.487Z,44.28
2022-07-29T12:59:15.001Z,44.52
2022-07-29T13:01:42.161Z,44.30
2022-07-29T13:04:08.989Z,44.70
2022-07-29T13:06:42.137Z,45.00
2022-07-29T13:09:14.950Z,45.21
2022-07-29T13:11:58.719Z,45.36
2022-07-29T13:14:32.108Z,45.72
2022-07-29T13:17:08.226Z,46.01
2022-07-29T13:19:45.742Z,46.11
2022-07-29T13:22:23.337Z,45.90
2022-07-29T13:24:56.372Z,45.27
2022-07-29T13:27:27.921Z,45.21
2022-07-29T13:30:00.184Z,45.19
2022-07-29T13:32:29.262Z,44.89
2022-07-29T13:34:57.895Z,44.74
2022-07-29T13:37:25.326Z,44.88
2022-07-29T13:39:53.428Z,45.06
2022-07-29T13:42:21.584Z,44.81
2022-07-29T13:44:52.297Z,44.80
2022-07-29T13:47:20.899Z,44.81
2022-07-29T13:49:48.582Z,44.46
2022-07-29T13:52:16.161Z,44.24
2022-07-29T13:54:43.841Z,44.68
2022-07-29T13:57:12.225Z,44.69
2022-07-29T13:59:42.847Z,44.93
2022-07-29T14:02:10.710Z,44.69
2022-07-29T14:04:39.639Z,44.36
2022-07-29T14:07:07.443Z,44.24
2022-07-29T14:09:41.025Z,44.12
2022-07-29T14:12:09.075Z,44.45
2022-07-29T14:14:36.934Z,44.57
2022-07-29T14:17:06.598Z,44.32
2022-07-29T14:19:36.015Z,44.46
2022-07-29T14:22:04.499Z,44.63
2022-07-29T14:24:32.337Z,44.45
2022-07-29T14:26:59.779Z,44.50
2022-07-29T14:29:37.765Z,44.86
2022-07-29T14:32:07.541Z,44.82
2022-07-29T14:34:36.033Z,44.87
2022-07-29T14:37:05.644Z,44.97
2022-07-29T14:39:32.893Z,45.23
2022-07-29T14:42:00.201Z,45.30
2022-07-29T14:44:31.467Z,45.29
2022-07-29T14:47:00.047Z,45.38
2022-07-29T14:49:27.842Z,45.27
2022-07-29T14:51:54.765Z,45.22
2022-07-29T14:54:21.709Z,45.17
2022-07-29T14:56:49.768Z,45.18
2022-07-29T14:59:16.972Z,45.22
2022-07-29T15:01:43.830Z,45.16
2022-07-29T15:04:10.903Z,45.19
2022-07-29T15:06:38.337Z,45.20
2022-07-29T15:09:06.363Z,45.25
2022-07-29T15:11:38.431Z,45.11
2022-07-29T15:14:06.501Z,45.02
2022-07-29T15:16:35.667Z,45.12
2022-07-29T15:19:02.841Z,45.35
2022-07-29T15:21:29.918Z,45.30
2022-07-29T15:23:56.795Z,45.26
2022-07-29T15:26:23.720Z,45.29
2022-07-29T15:28:50.413Z,44.96
2022-07-29T15:31:19.187Z,45.09
2022-07-29T15:33:45.995Z,45.11
2022-07-29T15:36:25.465Z,45.16
2022-07-29T15:39:01.816Z,45.28
2022-07-29T15:41:28.696Z,45.25
2022-07-29T15:43:55.551Z,45.47
2022-07-29T15:46:40.951Z,45.61
2022-07-29T15:49:08.487Z,45.61
2022-07-29T15:51:35.365Z,45.82
2022-07-29T15:54:05.504Z,45.78
2022-07-29T15:56:32.367Z,45.65
2022-07-29T15:58:59.719Z,45.94
2022-07-29T16:01:28.011Z,45.93
2022-07-29T16:03:59.253Z,46.12
2022-07-29T16:06:26.117Z,46.24
2022-07-29T16:08:55.357Z,46.38
2022-07-29T16:11:22.208Z,46.31
2022-07-29T16:13:49.047Z,46.26
2022-07-29T16:16:18.037Z,46.25
2022-07-29T16:18:45.401Z,46.41
2022-07-29T16:21:12.532Z,46.59
2022-07-29T16:23:39.848Z,46.75
2022-07-29T16:26:07.253Z,46.85
2022-07-29T16:28:34.670Z,47.05
2022-07-29T16:31:01.733Z,47.43
2022-07-29T16:33:28.665Z,47.54
2022-07-29T16:36:18.457Z,48.25
2022-07-29T16:38:47.162Z,48.76
2022-07-29T16:41:15.109Z,50.17
2022-07-29T16:43:42.060Z,50.97
2022-07-29T16:46:14.002Z,53.44
2022-07-29T16:48:46.123Z,56.51
2022-07-29T16:51:14.428Z,56.65
2022-07-29T16:53:42.009Z,56.60
2022-07-29T16:56:12.885Z,58.52
2022-07-29T16:58:43.441Z,59.28
2022-07-29T17:01:11.676Z,60.98
2022-07-29T17:04:01.037Z,59.33
2022-07-29T17:06:29.569Z,59.43
2022-07-29T17:08:56.699Z,59.83
2022-07-29T17:11:51.833Z,59.99
2022-07-29T17:14:10.573Z,60.35
2022-07-29T17:16:37.984Z,60.85
2022-07-29T17:19:04.925Z,61.33
2022-07-29T17:21:31.651Z,62.64
2022-07-29T17:23:59.702Z,62.70
2022-07-29T17:26:27.150Z,62.89
2022-07-29T17:28:55.492Z,63.90
2022-07-29T17:31:23.421Z,64.46
2022-07-29T17:33:50.415Z,64.17
2022-07-29T17:36:23.445Z,64.21
2022-07-29T17:38:52.576Z,64.24
2022-07-29T17:41:21.690Z,64.91
2022-07-29T17:43:49.486Z,65.13
2022-07-29T17:46:17.518Z,65.47
2022-07-29T17:48:44.378Z,65.83
2022-07-29T17:51:12.002Z,66.71
2022-07-29T17:53:39.270Z,67.13
2022-07-29T17:56:06.670Z,67.07
2022-07-29T17:58:34.198Z,66.92
2022-07-29T18:01:01.074Z,67.28
2022-07-29T18:03:27.897Z,67.17
2022-07-29T18:05:55.338Z,67.62
2022-07-29T18:08:22.228Z,67.91
2022-07-29T18:10:49.688Z,68.09
2022-07-29T18:13:17.447Z,68.67
2022-07-29T18:15:45.845Z,69.26
2022-07-29T18:18:14.119Z,70.01
2022-07-29T18:20:42.300Z,70.43
2022-07-29T18:23:09.557Z,70.30
2022-07-29T18:25:37.290Z,71.67
2022-07-29T18:28:05.402Z,71.40
2022-07-29T18:30:39.386Z,71.77
2022-07-29T18:33:23.415Z,71.96
2022-07-29T18:35:52.225Z,73.03
2022-07-29T18:38:21.285Z,73.57
2022-07-29T18:40:48.240Z,73.91
2022-07-29T18:43:14.998Z,73.83
2022-07-29T18:45:42.568Z,73.64
2022-07-29T18:48:12.884Z,73.47
2022-07-29T18:50:40.838Z,73.48
2022-07-29T18:53:07.944Z,74.14
2022-07-29T18:55:34.890Z,73.95
2022-07-29T18:58:01.652Z,73.58
2022-07-29T19:00:28.732Z,73.50
2022-07-29T19:02:56.724Z,73.36
2022-07-29T19:05:24.088Z,73.14
2022-07-29T19:07:51.074Z,73.18
2022-07-29T19:10:18.348Z,73.46
2022-07-29T19:12:45.609Z,73.71
2022-07-29T19:15:12.480Z,73.51
2022-07-29T19:17:48.071Z,73.41
2022-07-29T19:20:15.202Z,73.52
2022-07-29T19:22:42.132Z,73.40
2022-07-29T19:25:09.447Z,73.39
2022-07-29T19:27:36.313Z,73.82
2022-07-29T19:30:06.010Z,74.02
2022-07-29T19:32:33.247Z,74.05
2022-07-29T19:35:18.677Z,74.01
2022-07-29T19:37:45.484Z,74.06
2022-07-29T19:40:12.642Z,73.99
2022-07-29T19:42:39.420Z,74.15
2022-07-29T19:45:06.621Z,74.07
2022-07-29T19:47:33.438Z,74.00
2022-07-29T19:50:00.337Z,74.28
2022-07-29T19:52:27.881Z,74.26
2022-07-29T19:54:54.769Z,74.17
2022-07-29T19:57:22.232Z,74.22
2022-07-29T19:59:51.009Z,74.26
2022-07-29T20:02:17.902Z,74.47
2022-07-29T20:04:45.329Z,74.61
2022-07-29T20:07:12.982Z,74.97
2022-07-29T20:09:40.631Z,74.94
2022-07-29T20:12:11.111Z,74.94
2022-07-29T20:14:38.026Z,75.00
2022-07-29T20:17:05.094Z,75.30
2022-07-29T20:19:32.651Z,75.09
2022-07-29T20:22:00.182Z,75.23
2022-07-29T20:24:26.969Z,75.22
2022-07-29T20:26:53.815Z,75.24
2022-07-29T20:29:20.847Z,75.33
2022-07-29T20:31:52.894Z,75.41
2022-07-29T20:34:23.226Z,75.44
2022-07-29T20:36:50.061Z,75.43
2022-07-29T20:39:16.831Z,75.80
2022-07-29T20:41:43.904Z,75.92
2022-07-29T20:44:10.841Z,75.90
2022-07-29T20:46:38.701Z,76.04
2022-07-29T20:49:05.543Z,76.30
2022-07-29T20:51:32.835Z,76.16
2022-07-29T20:54:11.241Z,76.27
2022-07-29T20:56:38.591Z,76.29
2022-07-29T20:59:05.315Z,76.27
2022-07-29T21:01:32.167Z,76.41
2022-07-29T21:04:00.679Z,76.60
2022-07-29T21:06:27.475Z,76.48
2022-07-29T21:08:57.333Z,76.75
2022-07-29T21:11:43.238Z,76.81
2022-07-29T21:14:25.191Z,76.62
2022-07-29T21:16:51.930Z,76.63
2022-07-29T21:19:18.888Z,76.60
2022-07-29T21:21:45.958Z,76.93
2022-07-29T21:24:12.788Z,76.78
2022-07-29T21:26:39.629Z,76.80
2022-07-29T21:29:06.441Z,77.13
2022-07-29T21:31:33.361Z,76.86
2022-07-29T21:34:00.519Z,77.25
2022-07-29T21:36:47.609Z,77.02
2022-07-29T21:39:14.008Z,77.38
2022-07-29T21:41:40.699Z,77.77
2022-07-29T21:44:07.506Z,77.53
2022-07-29T21:46:36.045Z,77.79
2022-07-29T21:49:03.077Z,77.89
2022-07-29T21:51:29.967Z,77.83
2022-07-29T21:53:56.799Z,78.03
2022-07-29T21:56:26.342Z,78.22
2022-07-29T21:58:55.661Z,78.15
2022-07-29T22:01:23.450Z,78.29
2022-07-29T22:03:50.212Z,78.26
2022-07-29T22:06:18.184Z,78.44
2022-07-29T22:08:45.541Z,78.96
2022-07-29T22:11:12.767Z,78.78
2022-07-29T22:13:39.938Z,78.90
2022-07-29T22:16:08.901Z,78.60
2022-07-29T22:18:35.630Z,78.58
2022-07-29T22:21:02.396Z,78.54
2022-07-29T22:23:29.212Z,78.52
2022-07-29T22:25:55.941Z,78.33
2022-07-29T22:28:22.651Z,78.40
2022-07-29T22:30:49.524Z,78.44
2022-07-29T22:33:17.686Z,78.30
2022-07-29T22:35:48.615Z,78.40
2022-07-29T22:38:18.587Z,78.49
2022-07-29T22:40:46.486Z,78.49
2022-07-29T22:43:13.323Z,78.51
2022-07-29T22:45:40.788Z,78.79
2022-07-29T22:48:07.537Z,78.84
2022-07-29T22:50:34.289Z,78.87
2022-07-29T22:53:01.259Z,79.05
2022-07-29T22:55:27.981Z,78.91
2022-07-29T22:57:54.718Z,79.13
2022-07-29T23:00:21.524Z,79.23
2022-07-29T23:02:48.561Z,78.88
2022-07-29T23:05:15.954Z,79.16
2022-07-29T23:07:42.858Z,78.97
2022-07-29T23:10:09.938Z,79.14
2022-07-29T23:12:36.760Z,79.21
2022-07-29T23:15:05.266Z,79.42
2022-07-29T23:17:32.401Z,79.48
2022-07-29T23:20:06.672Z,79.94
2022-07-29T23:22:33.617Z,79.99
2022-07-29T23:25:00.339Z,80.00
2022-07-29T23:27:27.045Z,79.84
2022-07-29T23:29:53.777Z,80.30
2022-07-29T23:32:20.485Z,79.83
2022-07-29T23:34:47.173Z,80.05
2022-07-29T23:37:14.040Z,80.24
2022-07-29T23:39:40.724Z,80.41
2022-07-29T23:42:07.575Z,80.56
2022-07-29T23:44:34.490Z,80.46
2022-07-29T23:47:01.423Z,80.45
2022-07-29T23:49:28.473Z,81.12
2022-07-29T23:51:56.564Z,80.61
2022-07-29T23:54:23.356Z,80.66
2022-07-29T23:56:50.101Z,80.68
2022-07-29T23:59:16.776Z,80.90
